Time;durP1;ratioP1;P1;durP2;ratioP2;P2;SDS_P1;SDS_P2;PMS_P1;PMS_P2;Temp;Humidity;BMP_temperature;BMP_pressure;BME280_temperature;BME280_humidity;BME280_pressure;Samples;Min_cycle;Max_cycle;Signal;HPM_P1;HPM_P2
2022/06/26 00:00:51;;;;;;;6.60;4.97;;;;;;;;;;6234719;23;20423;-87
2022/06/26 00:03:56;;;;;;;5.68;3.30;;;;;;;;;;6234067;23;20174;-87
2022/06/26 00:07:03;;;;;;;6.93;3.40;;;;;;;;;;6234191;23;20578;-87
2022/06/26 00:10:09;;;;;;;8.05;3.55;;;;;;;;;;6234060;23;20213;-86
2022/06/26 00:13:17;;;;;;;6.55;3.10;;;;;;;;;;6234948;23;20514;-86
2022/06/26 00:16:25;;;;;;;6.78;3.78;;;;;;;;;;6233694;23;20217;-87
2022/06/26 00:19:30;;;;;;;4.78;3.28;;;;;;;;;;6234192;23;20565;-87
2022/06/26 00:22:36;;;;;;;8.57;3.10;;;;;;;;;;6251961;23;20174;-87
2022/06/26 00:25:42;;;;;;;5.97;3.00;;;;;;;;;;6233934;23;20249;-87
2022/06/26 00:28:49;;;;;;;3.67;2.90;;;;;;;;;;6236055;23;20169;-87
2022/06/26 00:31:54;;;;;;;9.18;2.90;;;;;;;;;;6234509;23;20211;-88
2022/06/26 00:35:01;;;;;;;8.95;3.10;;;;;;;;;;6239149;23;20469;-87
2022/06/26 00:38:07;;;;;;;8.18;2.80;;;;;;;;;;6243694;23;20200;-88
2022/06/26 00:41:12;;;;;;;4.38;2.90;;;;;;;;;;6243457;23;20225;-87
2022/06/26 00:44:19;;;;;;;9.27;3.33;;;;;;;;;;6259622;23;20249;-87
2022/06/26 00:47:25;;;;;;;3.97;3.20;;;;;;;;;;6232920;23;20170;-88
2022/06/26 00:50:30;;;;;;;10.90;3.42;;;;;;;;;;6248270;23;20235;-86
2022/06/26 00:53:36;;;;;;;5.80;3.65;;;;;;;;;;6234126;23;20225;-86
2022/06/26 00:56:42;;;;;;;5.43;3.50;;;;;;;;;;6252506;23;20420;-87
2022/06/26 00:59:51;;;;;;;4.55;3.25;;;;;;;;;;6238057;23;20241;-86
2022/06/26 01:02:56;;;;;;;7.43;3.60;;;;;;;;;;6245046;23;20154;-86
2022/06/26 01:06:02;;;;;;;9.43;5.28;;;;;;;;;;6252357;23;20174;-86
2022/06/26 01:09:08;;;;;;;5.18;3.30;;;;;;;;;;6252826;23;20178;-87
2022/06/26 01:12:13;;;;;;;6.90;3.28;;;;;;;;;;6252946;23;20174;-87
2022/06/26 01:15:21;;;;;;;5.43;2.97;;;;;;;;;;6235914;23;20175;-86
2022/06/26 01:18:28;;;;;;;6.70;3.15;;;;;;;;;;6253702;23;20210;-86
2022/06/26 01:21:35;;;;;;;6.50;2.97;;;;;;;;;;6252941;23;20154;-87
2022/06/26 01:24:42;;;;;;;12.40;4.88;;;;;;;;;;6252774;23;20214;-86
2022/06/26 01:27:49;;;;;;;7.38;3.60;;;;;;;;;;6254153;23;20165;-85
2022/06/26 01:30:56;;;;;;;8.07;3.22;;;;;;;;;;6254026;23;20162;-85
2022/06/26 01:34:05;;;;;;;6.32;3.10;;;;;;;;;;6253490;23;20221;-86
2022/06/26 01:37:10;;;;;;;6.78;3.33;;;;;;;;;;6254394;23;20199;-86
2022/06/26 01:40:17;;;;;;;5.40;3.60;;;;;;;;;;6250403;23;20221;-86
2022/06/26 01:43:24;;;;;;;4.25;3.10;;;;;;;;;;6255220;23;20553;-86
2022/06/26 01:46:31;;;;;;;6.20;3.60;;;;;;;;;;6234454;23;20174;-86
2022/06/26 01:49:37;;;;;;;8.98;3.80;;;;;;;;;;6233767;23;20170;-86
2022/06/26 01:52:42;;;;;;;10.43;4.20;;;;;;;;;;6233909;23;20407;-87
2022/06/26 01:55:50;;;;;;;17.63;3.63;;;;;;;;;;6235598;23;20662;-86
2022/06/26 01:59:03;;;;;;;6.57;3.92;;;;;;;;;;6236470;23;20206;-87
2022/06/26 02:02:16;;;;;;;7.25;3.80;;;;;;;;;;6235055;23;20523;-87
2022/06/26 02:05:21;;;;;;;6.68;3.65;;;;;;;;;;6252623;23;20224;-87
2022/06/26 02:08:26;;;;;;;6.82;4.03;;;;;;;;;;6235162;23;20244;-88
2022/06/26 02:14:59;;;;;;;7.72;4.13;;;;;;;;;;6233257;23;20404;-87
2022/06/26 02:18:04;;;;;;;6.47;4.20;;;;;;;;;;6234178;23;20290;-87
2022/06/26 02:21:13;;;;;;;10.13;4.40;;;;;;;;;;6236628;23;20194;-86
2022/06/26 02:24:20;;;;;;;9.27;4.80;;;;;;;;;;6233643;23;20400;-86
2022/06/26 02:27:27;;;;;;;7.43;4.55;;;;;;;;;;6233212;23;20174;-86
2022/06/26 02:30:33;;;;;;;8.02;4.40;;;;;;;;;;6251680;23;20415;-87
2022/06/26 02:33:39;;;;;;;8.07;5.07;;;;;;;;;;6236324;23;20174;-86
2022/06/26 02:36:44;;;;;;;11.82;5.45;;;;;;;;;;6240525;23;20301;-86
2022/06/26 02:39:49;;;;;;;10.93;5.63;;;;;;;;;;6254156;23;20578;-86
2022/06/26 02:42:56;;;;;;;11.77;5.50;;;;;;;;;;6237505;23;20268;-87
2022/06/26 02:46:02;;;;;;;12.15;6.75;;;;;;;;;;6238589;23;20540;-87
2022/06/26 02:49:08;;;;;;;10.80;6.28;;;;;;;;;;6242777;23;20190;-85
2022/06/26 02:52:13;;;;;;;9.85;6.55;;;;;;;;;;6219630;23;20179;-86
2022/06/26 02:55:19;;;;;;;11.38;6.68;;;;;;;;;;6253032;23;20403;-86
2022/06/26 02:58:26;;;;;;;12.70;5.30;;;;;;;;;;6236715;23;20167;-87
2022/06/26 03:01:34;;;;;;;13.35;6.10;;;;;;;;;;6235731;23;20241;-86
2022/06/26 03:05:00;;;;;;;10.95;5.70;;;;;;;;;;6252574;23;20292;-86
2022/06/26 03:08:05;;;;;;;14.38;6.07;;;;;;;;;;6235162;23;20193;-86
2022/06/26 03:11:12;;;;;;;9.73;5.93;;;;;;;;;;6235293;23;20246;-86
2022/06/26 03:14:18;;;;;;;9.07;5.78;;;;;;;;;;6235252;23;20618;-86
2022/06/26 03:17:28;;;;;;;8.90;6.30;;;;;;;;;;6235384;23;20209;-86
2022/06/26 03:20:34;;;;;;;10.65;6.05;;;;;;;;;;6235171;23;20228;-85
2022/06/26 03:27:03;;;;;;;11.88;6.28;;;;;;;;;;6235842;23;20170;-86
2022/06/26 03:30:13;;;;;;;9.80;6.03;;;;;;;;;;6235964;23;20290;-86
2022/06/26 03:33:23;;;;;;;9.70;6.75;;;;;;;;;;6234908;23;20178;-86
2022/06/26 03:36:29;;;;;;;9.95;6.40;;;;;;;;;;6234064;23;20241;-85
2022/06/26 03:39:35;;;;;;;9.23;6.45;;;;;;;;;;6234820;23;20214;-86
2022/06/26 03:42:45;;;;;;;8.48;6.00;;;;;;;;;;6235260;23;20225;-87
2022/06/26 03:45:53;;;;;;;8.80;5.93;;;;;;;;;;6235914;23;20530;-86
2022/06/26 03:48:59;;;;;;;9.80;6.30;;;;;;;;;;6234649;23;20245;-86
2022/06/26 03:52:06;;;;;;;8.65;5.72;;;;;;;;;;6236331;23;20217;-86
2022/06/26 03:55:11;;;;;;;9.10;6.25;;;;;;;;;;6235184;23;20174;-85
2022/06/26 03:58:18;;;;;;;10.15;6.10;;;;;;;;;;6234339;23;20178;-86
2022/06/26 04:01:25;;;;;;;10.75;6.40;;;;;;;;;;6234575;23;20514;-86
2022/06/26 04:04:34;;;;;;;9.48;6.15;;;;;;;;;;6235618;23;20550;-86
2022/06/26 04:07:41;;;;;;;12.20;8.15;;;;;;;;;;6234820;23;20338;-86
2022/06/26 04:11:06;;;;;;;9.77;6.93;;;;;;;;;;6235553;23;20286;-86
2022/06/26 04:14:15;;;;;;;8.80;6.35;;;;;;;;;;6235467;23;20469;-87
2022/06/26 04:17:22;;;;;;;9.40;6.82;;;;;;;;;;6234054;23;20170;-86
2022/06/26 04:20:39;;;;;;;12.32;6.35;;;;;;;;;;6234495;23;20577;-86
2022/06/26 04:23:44;;;;;;;13.20;5.97;;;;;;;;;;6234521;23;20565;-86
2022/06/26 04:26:56;;;;;;;14.65;6.47;;;;;;;;;;6239992;23;20491;-83
2022/06/26 04:30:03;;;;;;;27.55;6.95;;;;;;;;;;6235891;23;20543;-86
2022/06/26 04:33:11;;;;;;;12.93;6.78;;;;;;;;;;6236753;23;20175;-85
2022/06/26 04:36:16;;;;;;;15.15;6.63;;;;;;;;;;6236319;23;20171;-86
2022/06/26 04:39:22;;;;;;;17.13;7.32;;;;;;;;;;6252780;23;20245;-86
2022/06/26 04:42:28;;;;;;;10.43;7.03;;;;;;;;;;6234332;23;20466;-86
2022/06/26 04:45:34;;;;;;;6.95;5.43;;;;;;;;;;6235074;23;20179;-87
2022/06/26 04:48:41;;;;;;;9.77;6.63;;;;;;;;;;6234140;23;20201;-86
2022/06/26 04:51:48;;;;;;;13.82;7.28;;;;;;;;;;6236084;23;20504;-86
2022/06/26 04:55:06;;;;;;;9.60;6.15;;;;;;;;;;6252684;23;20189;-85
2022/06/26 04:58:16;;;;;;;8.25;5.22;;;;;;;;;;6237447;23;20202;-85
2022/06/26 05:01:22;;;;;;;7.03;5.20;;;;;;;;;;6238892;23;20194;-85
2022/06/26 05:04:52;;;;;;;16.13;7.35;;;;;;;;;;6238241;23;20190;-86
2022/06/26 05:08:23;;;;;;;32.65;7.97;;;;;;;;;;6254577;23;20221;-84
2022/06/26 05:11:29;;;;;;;9.25;6.85;;;;;;;;;;6244141;23;20174;-85
2022/06/26 05:14:34;;;;;;;18.42;7.70;;;;;;;;;;6248896;23;20205;-85
2022/06/26 05:17:56;;;;;;;16.60;8.23;;;;;;;;;;6250763;23;20171;-85
2022/06/26 05:21:03;;;;;;;10.13;7.07;;;;;;;;;;6269299;23;20245;-86
2022/06/26 05:24:15;;;;;;;11.00;6.70;;;;;;;;;;6252960;23;20186;-86
2022/06/26 05:27:24;;;;;;;12.90;6.85;;;;;;;;;;6252882;23;20194;-86
2022/06/26 05:30:29;;;;;;;11.30;7.20;;;;;;;;;;6251899;23;20194;-85
2022/06/26 05:33:41;;;;;;;10.13;7.03;;;;;;;;;;6251358;23;20247;-86
2022/06/26 05:36:53;;;;;;;11.82;7.18;;;;;;;;;;6251688;23;20182;-86
2022/06/26 05:39:59;;;;;;;8.73;6.97;;;;;;;;;;6251778;23;20617;-85
2022/06/26 05:43:05;;;;;;;17.80;8.85;;;;;;;;;;6268505;23;20266;-87
2022/06/26 05:46:10;;;;;;;10.95;7.50;;;;;;;;;;6250841;23;20208;-85
2022/06/26 05:49:45;;;;;;;13.65;7.05;;;;;;;;;;6229494;23;20186;-86
2022/06/26 05:52:59;;;;;;;11.35;7.85;;;;;;;;;;6250677;23;20174;-83
2022/06/26 05:56:20;;;;;;;11.52;7.30;;;;;;;;;;6233866;23;20250;-86
2022/06/26 05:59:51;;;;;;;10.77;7.15;;;;;;;;;;6272018;23;20234;-85
2022/06/26 06:03:15;;;;;;;13.65;6.57;;;;;;;;;;6263092;23;20240;-87
2022/06/26 06:06:21;;;;;;;9.93;6.32;;;;;;;;;;6241474;23;20209;-86
2022/06/26 06:09:28;;;;;;;10.20;6.60;;;;;;;;;;6237702;23;20178;-85
2022/06/26 06:12:33;;;;;;;8.35;6.38;;;;;;;;;;6233427;23;20466;-86
2022/06/26 06:15:38;;;;;;;9.43;6.88;;;;;;;;;;6215391;23;20206;-86
2022/06/26 06:18:44;;;;;;;8.63;5.70;;;;;;;;;;6235623;23;20213;-86
2022/06/26 06:21:50;;;;;;;8.32;5.43;;;;;;;;;;6235958;23;20179;-86
2022/06/26 06:24:58;;;;;;;9.13;5.93;;;;;;;;;;6235983;23;20170;-86
2022/06/26 06:28:06;;;;;;;10.38;5.85;;;;;;;;;;6254891;23;20174;-87
2022/06/26 06:31:17;;;;;;;11.15;5.85;;;;;;;;;;6234391;23;20435;-86
2022/06/26 06:34:22;;;;;;;7.05;5.22;;;;;;;;;;6235259;23;20243;-86
2022/06/26 06:37:29;;;;;;;6.78;4.78;;;;;;;;;;6235269;23;20174;-86
2022/06/26 06:40:36;;;;;;;8.90;5.20;;;;;;;;;;6235697;23;20326;-86
2022/06/26 06:43:42;;;;;;;6.90;4.15;;;;;;;;;;6235593;23;20166;-87
2022/06/26 06:47:06;;;;;;;6.70;3.85;;;;;;;;;;6247696;23;20193;-86
2022/06/26 06:50:22;;;;;;;6.05;4.15;;;;;;;;;;6243552;23;20286;-87
2022/06/26 06:53:27;;;;;;;5.80;3.85;;;;;;;;;;6243917;23;20174;-87
2022/06/26 06:56:35;;;;;;;6.85;3.75;;;;;;;;;;6239490;23;20253;-87
2022/06/26 06:59:40;;;;;;;9.00;3.63;;;;;;;;;;6234429;23;20202;-87
2022/06/26 07:02:46;;;;;;;4.60;3.28;;;;;;;;;;6235311;23;20241;-87
2022/06/26 07:05:51;;;;;;;5.22;3.45;;;;;;;;;;6242027;23;20174;-87
2022/06/26 07:08:57;;;;;;;8.18;3.70;;;;;;;;;;6247609;23;20227;-85
2022/06/26 07:12:05;;;;;;;5.25;3.35;;;;;;;;;;6248628;23;20198;-87
2022/06/26 07:15:11;;;;;;;6.15;3.40;;;;;;;;;;6249082;23;20174;-85
2022/06/26 07:18:17;;;;;;;6.07;2.92;;;;;;;;;;6251906;23;20178;-85
2022/06/26 07:21:22;;;;;;;5.20;3.13;;;;;;;;;;6233827;23;20275;-85
2022/06/26 07:24:29;;;;;;;6.22;3.60;;;;;;;;;;6252732;23;20173;-85
2022/06/26 07:31:30;;;;;;;7.25;2.63;;;;;;;;;;6238770;23;20166;-87
2022/06/26 07:34:36;;;;;;;5.55;2.83;;;;;;;;;;6240014;23;20463;-88
2022/06/26 07:37:42;;;;;;;4.38;2.78;;;;;;;;;;6253376;23;20181;-87
2022/06/26 07:40:50;;;;;;;4.95;2.85;;;;;;;;;;6237968;23;20201;-87
2022/06/26 07:43:57;;;;;;;7.38;3.05;;;;;;;;;;6254434;23;20196;-87
2022/06/26 07:47:04;;;;;;;7.55;2.60;;;;;;;;;;6254513;23;20208;-85
2022/06/26 07:50:29;;;;;;;8.57;2.30;;;;;;;;;;6271020;23;20178;-87
2022/06/26 07:53:36;;;;;;;4.57;2.10;;;;;;;;;;6255538;23;20364;-86
2022/06/26 07:56:42;;;;;;;3.00;1.95;;;;;;;;;;6254477;23;20178;-88
2022/06/26 12:53:21;;;;;;;1.17;0.60;;;;;;;;;;6240589;22;20189;-89
2022/06/26 12:56:31;;;;;;;0.50;0.50;;;;;;;;;;6240262;23;20158;-90
2022/06/26 12:59:36;;;;;;;1.25;0.85;;;;;;;;;;6239897;23;20170;-90
2022/06/26 13:02:44;;;;;;;1.05;0.63;;;;;;;;;;6240983;23;20248;-87
2022/06/26 13:05:50;;;;;;;1.42;0.70;;;;;;;;;;6240895;23;20172;-89
2022/06/26 13:08:57;;;;;;;2.42;1.88;;;;;;;;;;6241285;23;20244;-90
2022/06/26 13:12:03;;;;;;;1.08;0.60;;;;;;;;;;6241162;23;20231;-87
2022/06/26 13:15:09;;;;;;;0.70;0.60;;;;;;;;;;6241338;23;20213;-90
2022/06/26 13:18:14;;;;;;;0.50;0.50;;;;;;;;;;6240632;23;20173;-90
2022/06/26 13:21:21;;;;;;;1.75;0.60;;;;;;;;;;6240437;22;20236;-89
2022/06/26 13:24:31;;;;;;;1.15;0.60;;;;;;;;;;6240895;23;20182;-91
2022/06/26 13:27:36;;;;;;;1.15;0.60;;;;;;;;;;6239507;23;20169;-90
2022/06/26 13:30:42;;;;;;;0.98;0.60;;;;;;;;;;6243209;23;20193;-89
2022/06/26 13:33:47;;;;;;;1.05;0.52;;;;;;;;;;6256924;23;20181;-90
2022/06/26 13:36:53;;;;;;;0.80;0.50;;;;;;;;;;6241646;22;20170;-89
2022/06/26 13:40:00;;;;;;;0.90;0.57;;;;;;;;;;6239218;23;20176;-88
2022/06/26 13:43:06;;;;;;;1.80;0.60;;;;;;;;;;6241299;23;20238;-89
2022/06/26 13:46:16;;;;;;;0.60;0.50;;;;;;;;;;6257375;23;20177;-90
2022/06/26 13:49:22;;;;;;;2.35;0.80;;;;;;;;;;6239569;23;20235;-90
2022/06/26 13:52:27;;;;;;;1.65;0.45;;;;;;;;;;6238215;23;20172;-91
2022/06/26 13:55:33;;;;;;;1.23;0.80;;;;;;;;;;6238393;22;20197;-90
2022/06/26 13:58:38;;;;;;;0.63;0.55;;;;;;;;;;6238057;23;20172;-89
2022/06/26 14:01:44;;;;;;;0.50;0.50;;;;;;;;;;6236403;23;20752;-89
2022/06/26 14:04:49;;;;;;;0.80;0.60;;;;;;;;;;6235874;23;20240;-90
2022/06/26 14:07:55;;;;;;;2.15;1.17;;;;;;;;;;6235929;23;20621;-89
2022/06/26 14:11:01;;;;;;;2.10;0.73;;;;;;;;;;6236022;23;20213;-89
2022/06/26 14:14:06;;;;;;;1.98;0.55;;;;;;;;;;6235350;23;20165;-89
2022/06/26 14:17:11;;;;;;;3.67;0.65;;;;;;;;;;6237452;23;20602;-89
2022/06/26 14:20:16;;;;;;;1.70;0.60;;;;;;;;;;6235827;23;20274;-89
2022/06/26 14:26:46;;;;;;;1.90;0.95;;;;;;;;;;6238235;22;20166;-87
2022/06/26 14:29:52;;;;;;;1.10;0.65;;;;;;;;;;6236509;23;20168;-91
2022/06/26 14:32:57;;;;;;;1.40;0.88;;;;;;;;;;6236439;23;20158;-91
2022/06/26 14:36:03;;;;;;;5.57;1.00;;;;;;;;;;6238464;23;20170;-90
2022/06/26 14:39:08;;;;;;;1.88;0.75;;;;;;;;;;6238583;23;20170;-91
2022/06/26 14:42:14;;;;;;;2.83;0.82;;;;;;;;;;6239011;23;20189;-90
2022/06/26 14:45:19;;;;;;;2.05;0.80;;;;;;;;;;6240077;23;20162;-89
2022/06/26 14:48:25;;;;;;;1.13;0.70;;;;;;;;;;6239554;22;20297;-88
2022/06/26 14:51:31;;;;;;;2.65;1.00;;;;;;;;;;6257954;23;20162;-89
2022/06/26 14:54:36;;;;;;;1.55;0.70;;;;;;;;;;6238706;23;20190;-89
2022/06/26 14:57:43;;;;;;;1.10;0.95;;;;;;;;;;6239213;23;20181;-88
2022/06/26 15:00:49;;;;;;;1.33;0.93;;;;;;;;;;6239766;23;20194;-90
2022/06/26 15:03:54;;;;;;;1.20;0.85;;;;;;;;;;6238986;22;20213;-89
2022/06/26 15:06:59;;;;;;;5.93;1.17;;;;;;;;;;6240472;23;20174;-89
2022/06/26 15:10:05;;;;;;;1.13;0.90;;;;;;;;;;6240965;23;20170;-89
2022/06/26 15:13:13;;;;;;;2.65;1.00;;;;;;;;;;6238130;23;20173;-91
2022/06/26 15:16:18;;;;;;;2.75;1.30;;;;;;;;;;6256906;23;20161;-89
2022/06/26 15:19:24;;;;;;;2.70;1.00;;;;;;;;;;6237449;23;20174;-89
2022/06/26 15:22:46;;;;;;;4.30;1.05;;;;;;;;;;6235281;23;20237;-90
2022/06/26 15:25:51;;;;;;;1.92;1.00;;;;;;;;;;6237937;23;20289;-88
2022/06/26 15:28:58;;;;;;;1.65;1.00;;;;;;;;;;6239388;23;20170;-88
2022/06/26 15:32:04;;;;;;;1.58;1.30;;;;;;;;;;6236945;23;20641;-89
2022/06/26 15:35:09;;;;;;;3.55;1.00;;;;;;;;;;6254146;23;20174;-88
2022/06/26 15:38:14;;;;;;;1.88;0.93;;;;;;;;;;6255053;23;20301;-88
2022/06/26 15:41:20;;;;;;;1.88;1.10;;;;;;;;;;6238523;23;20577;-88
2022/06/26 15:44:26;;;;;;;2.20;1.00;;;;;;;;;;6238337;23;20166;-88
2022/06/26 15:47:32;;;;;;;1.20;0.90;;;;;;;;;;6239098;23;20166;-90
2022/06/26 15:50:37;;;;;;;1.67;1.02;;;;;;;;;;6254892;23;20185;-89
2022/06/26 15:53:42;;;;;;;3.03;1.00;;;;;;;;;;6255246;23;20190;-89
2022/06/26 15:56:51;;;;;;;2.35;0.82;;;;;;;;;;6238867;23;20170;-90
2022/06/26 15:59:58;;;;;;;2.83;0.98;;;;;;;;;;6239132;23;20261;-91
2022/06/26 16:03:03;;;;;;;1.80;1.02;;;;;;;;;;6239131;23;20194;-89
2022/06/26 16:06:09;;;;;;;3.10;1.33;;;;;;;;;;6239953;23;20607;-89
2022/06/26 16:09:15;;;;;;;3.17;1.20;;;;;;;;;;6238973;23;20166;-89
2022/06/26 16:12:24;;;;;;;1.52;1.08;;;;;;;;;;6237521;23;20171;-89
2022/06/26 16:15:31;;;;;;;1.65;1.23;;;;;;;;;;6239046;23;20170;-90
2022/06/26 16:18:37;;;;;;;2.30;1.00;;;;;;;;;;6240093;23;20291;-90
2022/06/26 16:26:17;;;;;;;2.00;1.10;;;;;;;;;;6256396;23;20142;-90
2022/06/26 16:29:22;;;;;;;2.00;1.23;;;;;;;;;;6237736;23;20174;-90
2022/06/26 16:32:31;;;;;;;2.47;1.00;;;;;;;;;;6239742;23;20167;-90
2022/06/26 16:35:36;;;;;;;2.08;1.05;;;;;;;;;;6238222;23;20226;-89
2022/06/26 16:38:41;;;;;;;1.70;1.15;;;;;;;;;;6237392;23;20185;-89
2022/06/26 16:41:46;;;;;;;2.30;1.10;;;;;;;;;;6239360;23;20206;-91
2022/06/26 16:44:52;;;;;;;2.03;1.13;;;;;;;;;;6240282;23;20171;-90
2022/06/26 16:48:03;;;;;;;0.90;0.80;;;;;;;;;;6240833;23;20215;-89
2022/06/26 16:51:08;;;;;;;2.17;1.00;;;;;;;;;;6258550;23;20170;-90
2022/06/26 16:54:17;;;;;;;3.50;1.20;;;;;;;;;;6236855;23;20197;-89
2022/06/26 16:57:27;;;;;;;4.82;2.25;;;;;;;;;;6238940;23;20174;-90
2022/06/26 17:00:37;;;;;;;1.60;1.10;;;;;;;;;;6239579;23;20170;-89
2022/06/26 17:03:48;;;;;;;1.40;1.02;;;;;;;;;;6239817;23;20174;-89
2022/06/26 17:06:56;;;;;;;2.97;1.00;;;;;;;;;;6239961;23;20174;-89
2022/06/26 17:10:05;;;;;;;6.90;3.30;;;;;;;;;;6254788;23;20597;-90
2022/06/26 17:13:12;;;;;;;1.65;1.17;;;;;;;;;;6239519;22;20175;-88
2022/06/26 17:16:18;;;;;;;5.40;2.08;;;;;;;;;;6239302;23;20508;-90
2022/06/26 17:19:24;;;;;;;4.40;1.50;;;;;;;;;;6239226;23;20265;-89
2022/06/26 17:22:30;;;;;;;3.33;1.10;;;;;;;;;;6236658;23;20190;-88
2022/06/26 17:25:36;;;;;;;3.90;1.30;;;;;;;;;;6235794;23;20170;-89
2022/06/26 17:28:41;;;;;;;2.15;0.93;;;;;;;;;;6236030;23;20178;-88
2022/06/26 17:31:47;;;;;;;0.98;0.80;;;;;;;;;;6236185;23;20163;-89
2022/06/26 17:34:54;;;;;;;1.35;0.90;;;;;;;;;;6235833;23;20173;-89
2022/06/26 17:37:59;;;;;;;1.00;0.90;;;;;;;;;;6234062;23;20178;-88
2022/06/26 17:41:05;;;;;;;3.50;1.13;;;;;;;;;;6235613;23;20193;-89
2022/06/26 17:44:10;;;;;;;2.75;1.35;;;;;;;;;;6235296;23;20496;-89
2022/06/26 17:50:41;;;;;;;3.33;1.33;;;;;;;;;;6235668;23;20210;-89
2022/06/26 17:53:46;;;;;;;3.83;2.00;;;;;;;;;;6233731;23;20186;-89
2022/06/26 17:56:52;;;;;;;1.05;0.90;;;;;;;;;;6255045;23;20186;-88
2022/06/26 17:59:57;;;;;;;1.05;0.93;;;;;;;;;;6252613;23;20213;-90
2022/06/26 18:03:03;;;;;;;2.10;1.20;;;;;;;;;;6236978;23;20190;-89
2022/06/26 18:06:10;;;;;;;5.30;1.85;;;;;;;;;;6237977;23;20163;-90
2022/06/26 18:09:15;;;;;;;1.67;1.48;;;;;;;;;;6238623;23;20594;-89
2022/06/26 18:12:21;;;;;;;4.80;1.48;;;;;;;;;;6237364;23;20166;-89
2022/06/26 18:15:26;;;;;;;2.53;1.15;;;;;;;;;;6257682;22;20162;-89
2022/06/26 18:18:31;;;;;;;2.60;1.50;;;;;;;;;;6241966;23;20170;-89
2022/06/26 18:21:40;;;;;;;2.88;1.20;;;;;;;;;;6241573;23;20194;-89
2022/06/26 18:24:46;;;;;;;1.92;1.10;;;;;;;;;;6257315;23;20171;-89
2022/06/26 18:27:53;;;;;;;1.95;1.20;;;;;;;;;;6240918;23;20240;-89
2022/06/26 18:30:58;;;;;;;2.85;1.35;;;;;;;;;;6257034;23;20166;-89
2022/06/26 18:34:04;;;;;;;3.75;1.40;;;;;;;;;;6239020;23;20170;-88
2022/06/26 18:37:08;;;;;;;3.92;1.50;;;;;;;;;;6240060;22;20252;-88
2022/06/26 18:40:16;;;;;;;3.13;1.20;;;;;;;;;;6240624;23;20236;-87
2022/06/26 18:43:21;;;;;;;1.58;1.30;;;;;;;;;;6242470;23;20197;-89
2022/06/26 18:46:27;;;;;;;1.88;1.20;;;;;;;;;;6242233;22;20610;-89
2022/06/26 18:49:32;;;;;;;2.47;1.70;;;;;;;;;;6261767;22;20211;-90
2022/06/26 18:52:38;;;;;;;1.70;1.30;;;;;;;;;;6246739;23;20210;-90
2022/06/26 18:55:50;;;;;;;2.70;1.95;;;;;;;;;;6242664;23;20185;-88
2022/06/26 18:58:56;;;;;;;4.47;1.70;;;;;;;;;;6241079;23;20165;-90
2022/06/26 19:02:03;;;;;;;3.78;1.58;;;;;;;;;;6242438;23;20189;-88
2022/06/26 19:05:09;;;;;;;6.57;1.70;;;;;;;;;;6243904;23;20637;-89
2022/06/26 19:08:14;;;;;;;4.70;2.55;;;;;;;;;;6248489;23;20186;-89
2022/06/26 19:14:46;;;;;;;7.00;1.70;;;;;;;;;;6241587;23;20569;-90
2022/06/26 19:17:51;;;;;;;6.82;1.90;;;;;;;;;;6240416;22;20174;-89
2022/06/26 19:20:57;;;;;;;3.50;1.70;;;;;;;;;;6242714;23;20163;-90
2022/06/26 19:24:03;;;;;;;3.75;2.15;;;;;;;;;;6240220;23;20170;-89
2022/06/26 19:27:11;;;;;;;2.72;1.67;;;;;;;;;;6240145;23;20173;-90
2022/06/26 19:30:17;;;;;;;4.25;2.25;;;;;;;;;;6258464;22;20214;-89
2022/06/26 19:33:22;;;;;;;4.95;1.85;;;;;;;;;;6240017;23;20167;-90
2022/06/26 19:36:27;;;;;;;3.45;2.00;;;;;;;;;;6240245;23;20166;-89
2022/06/26 19:39:34;;;;;;;4.50;2.35;;;;;;;;;;6239029;23;20212;-89
2022/06/26 19:42:41;;;;;;;2.75;1.77;;;;;;;;;;6241061;23;20198;-88
2022/06/26 19:45:46;;;;;;;5.40;1.90;;;;;;;;;;6240535;23;20166;-90
2022/06/26 19:48:51;;;;;;;4.40;1.80;;;;;;;;;;6238152;23;20188;-90
2022/06/26 19:51:57;;;;;;;2.40;1.65;;;;;;;;;;6239607;23;20155;-89
2022/06/26 19:55:03;;;;;;;2.65;1.70;;;;;;;;;;6238221;23;20654;-89
2022/06/26 19:58:09;;;;;;;3.55;2.13;;;;;;;;;;6258157;22;20167;-88
2022/06/26 20:01:14;;;;;;;3.47;1.63;;;;;;;;;;6240095;22;20213;-89
2022/06/26 20:04:19;;;;;;;5.93;2.00;;;;;;;;;;6242164;23;20249;-88
2022/06/26 20:07:25;;;;;;;4.45;1.80;;;;;;;;;;6240054;23;20221;-88
2022/06/26 20:10:30;;;;;;;6.07;2.10;;;;;;;;;;6258187;23;20212;-88
2022/06/26 20:13:37;;;;;;;3.72;1.90;;;;;;;;;;6256257;23;20213;-89
2022/06/26 20:16:44;;;;;;;5.00;2.10;;;;;;;;;;6241447;23;20173;-86
2022/06/26 20:19:49;;;;;;;3.40;2.10;;;;;;;;;;6240899;23;20151;-89
2022/06/26 20:22:58;;;;;;;5.68;2.95;;;;;;;;;;6240497;23;20246;-88
2022/06/26 20:26:03;;;;;;;3.90;2.30;;;;;;;;;;6242807;23;20166;-88
2022/06/26 20:29:10;;;;;;;2.58;2.00;;;;;;;;;;6241842;23;20167;-88
2022/06/26 20:32:16;;;;;;;2.97;2.28;;;;;;;;;;6241342;23;20170;-87
2022/06/26 20:35:25;;;;;;;5.88;2.22;;;;;;;;;;6240716;22;20167;-89
2022/06/26 20:38:33;;;;;;;3.67;2.20;;;;;;;;;;6241959;23;20167;-89
2022/06/26 20:41:39;;;;;;;3.67;2.05;;;;;;;;;;6240645;23;20606;-88
2022/06/26 20:44:46;;;;;;;11.50;2.42;;;;;;;;;;6241854;23;20170;-88
2022/06/26 20:47:52;;;;;;;3.72;2.40;;;;;;;;;;6260643;23;20206;-90
2022/06/26 20:50:57;;;;;;;4.53;2.53;;;;;;;;;;6245432;22;20162;-89
2022/06/26 20:54:03;;;;;;;3.45;2.10;;;;;;;;;;6260683;22;20189;-89
2022/06/26 20:57:09;;;;;;;5.00;2.30;;;;;;;;;;6242830;23;20171;-87
2022/06/26 21:00:17;;;;;;;3.85;2.28;;;;;;;;;;6241790;23;20859;-88
2022/06/26 21:03:24;;;;;;;5.95;2.40;;;;;;;;;;6242733;23;20193;-88
2022/06/26 21:06:29;;;;;;;5.07;2.10;;;;;;;;;;6258959;22;20178;-88
2022/06/26 21:09:34;;;;;;;6.18;2.95;;;;;;;;;;6240449;22;20249;-89
2022/06/26 21:12:40;;;;;;;4.72;2.15;;;;;;;;;;6241380;22;20292;-89
2022/06/26 21:15:46;;;;;;;8.82;2.55;;;;;;;;;;6257243;22;20502;-90
2022/06/26 21:18:52;;;;;;;3.47;2.47;;;;;;;;;;6240470;23;20163;-90
2022/06/26 21:21:58;;;;;;;4.97;2.67;;;;;;;;;;6255080;23;20621;-89
2022/06/26 21:25:07;;;;;;;6.20;2.58;;;;;;;;;;6238271;23;20227;-90
2022/06/26 21:28:12;;;;;;;4.95;2.35;;;;;;;;;;6238933;22;20166;-89
2022/06/26 21:31:18;;;;;;;4.43;2.65;;;;;;;;;;6241114;23;20162;-89
2022/06/26 21:34:25;;;;;;;4.05;2.60;;;;;;;;;;6241465;23;20217;-89
2022/06/26 21:37:32;;;;;;;4.20;2.22;;;;;;;;;;6262535;22;20230;-89
2022/06/26 21:40:37;;;;;;;7.38;2.25;;;;;;;;;;6246388;22;20170;-88
2022/06/26 21:43:44;;;;;;;6.30;2.90;;;;;;;;;;6245314;23;20194;-88
2022/06/26 21:46:50;;;;;;;4.53;2.53;;;;;;;;;;6241282;23;20194;-89
2022/06/26 21:50:18;;;;;;;6.00;2.80;;;;;;;;;;6240731;23;20170;-89
2022/06/26 21:53:23;;;;;;;4.43;3.00;;;;;;;;;;6256719;23;20165;-88
2022/06/26 21:56:29;;;;;;;8.23;2.50;;;;;;;;;;6241275;23;20206;-89
2022/06/26 21:59:34;;;;;;;5.47;3.03;;;;;;;;;;6244452;23;20300;-88
2022/06/26 22:02:51;;;;;;;8.85;3.10;;;;;;;;;;6243102;23;20198;-88
2022/06/26 22:05:56;;;;;;;6.05;3.05;;;;;;;;;;6259395;22;20559;-90
2022/06/26 22:09:02;;;;;;;6.53;2.88;;;;;;;;;;6243202;23;20282;-87
2022/06/26 22:12:07;;;;;;;5.35;3.03;;;;;;;;;;6240372;23;20166;-89
2022/06/26 22:15:13;;;;;;;6.32;2.78;;;;;;;;;;6241074;23;20166;-89
2022/06/26 22:18:20;;;;;;;7.15;2.90;;;;;;;;;;6259227;23;20170;-88
2022/06/26 22:21:26;;;;;;;7.88;2.83;;;;;;;;;;6243397;23;20213;-90
2022/06/26 22:24:31;;;;;;;4.97;3.00;;;;;;;;;;6258966;23;20290;-89
2022/06/26 22:27:53;;;;;;;9.85;2.72;;;;;;;;;;6241440;23;20165;-87
2022/06/26 22:30:58;;;;;;;5.63;2.80;;;;;;;;;;6242158;23;20158;-90
2022/06/26 22:34:05;;;;;;;8.48;3.30;;;;;;;;;;6241571;23;20252;-90
2022/06/26 22:37:10;;;;;;;6.43;3.13;;;;;;;;;;6259394;23;20217;-90
2022/06/26 22:40:15;;;;;;;4.68;2.75;;;;;;;;;;6240151;23;20174;-89
2022/06/26 22:43:21;;;;;;;5.72;3.20;;;;;;;;;;6239964;23;20198;-89
2022/06/26 22:46:26;;;;;;;3.30;2.38;;;;;;;;;;6242036;22;20166;-88
2022/06/26 22:49:33;;;;;;;9.15;2.97;;;;;;;;;;6242036;22;20171;-90
2022/06/26 22:52:38;;;;;;;6.03;3.30;;;;;;;;;;6241366;22;20551;-88
2022/06/26 22:55:45;;;;;;;6.78;2.65;;;;;;;;;;6240582;23;20182;-89
2022/06/26 22:58:50;;;;;;;8.02;2.88;;;;;;;;;;6241334;23;20218;-87
2022/06/26 23:01:55;;;;;;;5.15;2.80;;;;;;;;;;6242266;23;20170;-90
2022/06/26 23:05:03;;;;;;;5.50;2.60;;;;;;;;;;6241810;22;20198;-89
2022/06/26 23:08:08;;;;;;;6.30;2.70;;;;;;;;;;6243646;22;20167;-89
2022/06/26 23:11:13;;;;;;;4.43;2.75;;;;;;;;;;6242548;23;20530;-88
2022/06/26 23:14:18;;;;;;;7.40;2.95;;;;;;;;;;6241809;23;20186;-88
2022/06/26 23:17:23;;;;;;;4.95;2.90;;;;;;;;;;6257275;23;20258;-88
2022/06/26 23:20:30;;;;;;;5.50;3.03;;;;;;;;;;6240104;23;20166;-88
2022/06/26 23:23:36;;;;;;;8.02;2.85;;;;;;;;;;6241367;22;20198;-89
2022/06/26 23:26:41;;;;;;;3.85;2.95;;;;;;;;;;6241403;22;20282;-88
2022/06/26 23:29:46;;;;;;;3.70;2.80;;;;;;;;;;6242077;23;20179;-90
2022/06/26 23:32:51;;;;;;;5.22;2.80;;;;;;;;;;6240900;23;20591;-88
2022/06/26 23:35:58;;;;;;;6.07;3.10;;;;;;;;;;6241963;23;20170;-88
2022/06/26 23:39:03;;;;;;;7.13;2.88;;;;;;;;;;6240805;22;20174;-90
2022/06/26 23:42:09;;;;;;;8.55;3.70;;;;;;;;;;6260229;23;20490;-91
2022/06/26 23:45:15;;;;;;;6.20;3.53;;;;;;;;;;6242171;23;20175;-91
2022/06/26 23:48:20;;;;;;;9.15;3.33;;;;;;;;;;6241865;23;20171;-88
2022/06/26 23:51:26;;;;;;;6.15;2.83;;;;;;;;;;6258561;23;20169;-88
2022/06/26 23:54:32;;;;;;;5.45;3.10;;;;;;;;;;6240738;22;20190;-91
2022/06/26 23:57:37;;;;;;;5.03;2.78;;;;;;;;;;6240562;22;20175;-90
